Central Virginia Flyers


Central Virginia Flyers is a 10 member flying club based in Richmond, VA at Hanover County Airport (KOFP). We own N787AT, a 1977 Cessna 172 with 180hp conversion. If you are interested in membership, please contact Brenton at [email protected]


Aviation Digital Data Service (ADDS)

Output produced by METARs form (2343 UTC 03 July 2015)
found at http://aviationweather.gov/adds/metars/
 
KOFP 032254Z AUTO 00000KT 7SM FEW044 FEW049 BKN110 24/19 A2993 RMK AO2 RAB29E41 SLP134 P0000 T02390194
KRIC 032254Z 09008KT 10SM -RA BKN045 OVC100 25/19 A2991 RMK AO2 RAB54 SLP133 P0000 T02500189
KRIC 032338Z 0400/0424 10006KT P6SM -RA BKN045 BKN100 OVC250 
     TEMPO 0401/0404 2SM RA BR SCT020 OVC030 
     FM040400 10005KT 4SM -RA BR SCT009 BKN020 OVC040 
     FM040700 VRB04KT 2SM -RA BR OVC007 
     FM041400 25012KT P6SM -RA BKN020 BKN050